Tiempo atmosférico en la estación meteorológica de Ordizia, Gipuzkoa (290 m.)



Fecha
DESCASC
Temp. máxima en grados centígrados (hora)
DESCASC
Temp. mínima en grados centígrados (hora)
DESCASC
Temp. media en grados centígrados
DESCASC
Racha de viento máxima en m/sg (hora)
DESCASC
Velocidad máxima media en intervalos de 10 minutos(hora)
DESCASC
Precipitaciones diarias en mm
DESCASC
Precipitaciones de 00:00 a 06:00 en mm
DESCASC
Precipitaciones de 06:00 a 12:00 en mm
DESCASC
Precipitaciones de 12:00 a 18:00 en mm
DESCASC
Precipitaciones de 18:00 a 24:00 en mm
DESCASC
27-10-2019 24.8 (14:30) 17.5 (00:00) 21.1 10.28 (06:40) 4.44 (13:30) 0 0 0 0 0
28-10-2019 24.6 (15:10) 14.3 (00:00) 19.5 6.67 (02:00) 3.61 (02:00) 0 0 0 0 0
26-10-2019 24 (15:00) 12.3 (00:00) 18.2 10.28 (13:20) 5 (15:50) 0 0 0 0 0
29-10-2019 24.2 (13:40) 11.4 (00:00) 17.8 6.39 (15:50) 4.44 (15:50) 0 0 0 0 0
19-10-2019 22.3 (16:00) 13.1 (00:00) 17.7 11.94 (01:50) 7.22 (17:20) 0.4 0 0 0 0.4
01-11-2019 21.7 (14:10) 12.9 (00:00) 17.3 8.61 (16:20) 5 (16:20) 19.2 0.8 0.4 17 1
30-10-2019 22.8 (14:20) 11.8 (00:00) 17.3 6.67 (15:00) 3.06 (15:00) 0.2 0 0 0 0.2
25-10-2019 23.8 (15:50) 9.5 (00:00) 16.6 5 (16:00) 2.5 (16:00) 0.2 0 0.2 0 0
31-10-2019 18.6 (14:30) 13 (23:40) 15.8 4.72 (01:30) 2.78 (01:30) 5.2 2.8 1.4 1 0
18-10-2019 18.2 (15:10) 13.1 (00:00) 15.7 4.44 (14:50) 2.5 (14:20) 2.2 0 2 0.2 0
02-11-2019 16.9 (21:30) 13.6 (00:00) 15.3 17.5 (23:00) 8.89 (23:59) 17 0.2 16.6 0.2 0
23-10-2019 17.7 (14:20) 9.6 (00:00) 13.7 8.06 (17:10) 5.56 (15:00) 9.2 0.2 0.6 0 8.4
03-11-2019 16.8 (00:00) 10.5 (00:00) 13.6 22.22 (03:50) 10.83 (04:00) 7.8 4.2 2 0 1.6
04-11-2019 17.5 (10:40) 9.1 (00:00) 13.3 19.17 (09:30) 10.83 (09:30) 11.6 0 0.2 11.2 0.2
21-10-2019 17.3 (14:30) 7.9 (00:00) 12.6 5 (14:40) 3.06 (14:40) 0 0 0 0 0
20-10-2019 14.7 (02:30) 9.8 (00:00) 12.3 10.56 (10:40) 6.39 (10:40) 10.6 5.4 4 0.8 0.4
24-10-2019 14.3 (17:50) 9 (00:00) 11.7 6.94 (00:10) 4.44 (00:10) 23.8 6.6 11.8 5.4 0
06-11-2019 12.9 (15:30) 8.6 (00:00) 10.8 6.94 (09:40) 4.17 (09:30) 11.2 6 4 0 1.2
13-11-2019 11.7 (12:50) 7.5 (00:00) 9.6 7.5 (15:20) 3.61 (15:20) 10.6 3.4 6.8 0.4 0
22-10-2019 10.1 (15:20) 7.2 (00:00) 8.7 4.72 (16:30) 1.67 (16:30) 21 0 0 7.8 13.2
09-11-2019 10.7 (14:00) 6.4 (00:00) 8.5 11.67 (19:50) 3.89 (12:30) 28 10.6 1.6 2.6 13.2
12-11-2019 11.4 (14:00) 5.7 (00:00) 8.5 5.56 (08:20) 3.33 (08:20) 4.6 1.2 2 0 1.4
05-11-2019 9.5 (08:40) 6.9 (00:00) 8.2 10.28 (11:10) 6.39 (11:10) 23.6 0 3.4 11.8 8.4
07-11-2019 11.8 (00:20) 3.4 (00:00) 7.6 16.39 (17:40) 6.94 (17:40) 14 5.8 3.4 4.2 0.6
14-11-2019 10.9 (14:00) 3.3 (00:00) 7.1 9.72 (02:00) 3.89 (02:50) 16.4 16 0.2 0 0.2
11-11-2019 9.1 (14:30) 4.4 (01:10) 6.8 12.22 (15:00) 4.17 (15:00) 10.8 0.8 3 4 3
10-11-2019 7 (16:40) 4.5 (00:00) 5.8 10.28 (13:00) 6.67 (13:00) 30.6 6.4 10.6 8.6 5
15-11-2019 8.1 (14:10) 3.5 (00:00) 5.8 7.78 (10:20) 4.44 (11:20) 14.4 0.4 7.2 5.6 1.2
08-11-2019 7.7 (19:30) 3.3 (00:00) 5.5 12.78 (18:30) 6.94 (02:40) 60 2.8 12.8 25.8 18.6
16-11-2019 5.8 (17:40) 0.9 (00:00) 3.4 5 (17:40) 2.5 (14:00) 18 0 7.4 9.4 1.2

Gráficas

Temp. máximas Temp. mínimas Temp. medias Precipitaciones Rachas de viento máximas Velocidades máximas media en intervalos de 10 minutos

Datos horarios

Fecha y hora oficial Temperatura (ºC) Velocidad del viento (km/h) Dirección del viento Racha (km/h) Dirección de racha Precipitación (mm) Presión (hPa) Tendencia (hPa) Humedad (%)
2019-11-16 23:00:00 4.9 3 Noroeste 10 Sudoeste 0 -- -- 100
2019-11-16 22:00:00 5.2 4 Noroeste 10 Noroeste 0 -- -- 100
2019-11-16 21:00:00 5.4 0 Calma 7 Sudoeste 0.2 -- -- 100
2019-11-16 20:00:00 5.7 3 Noroeste 8 Oeste 0.4 -- -- 100
2019-11-16 19:00:00 5.7 3 Sur 10 Sudoeste 0.6 -- -- 100
2019-11-16 18:00:00 5.8 3 Sur 18 Oeste 1.6 -- -- 100
2019-11-16 17:00:00 5.6 3 Sur 6 Oeste 1.8 -- -- 100
2019-11-16 16:00:00 5.5 2 Sudeste 8 Oeste 0.4 -- -- 100
2019-11-16 15:00:00 4.8 3 Sudoeste 13 Oeste 1.4 -- -- 100
2019-11-16 14:00:00 4.5 9 Oeste 16 Oeste 1.4 -- -- 100
2019-11-16 13:00:00 4.2 6 Oeste 10 Oeste 2.8 -- -- 100
2019-11-16 12:00:00 3.5 8 Oeste 14 Sudoeste 3.6 -- -- 100
2019-11-16 11:00:00 2.6 3 Sur 6 Oeste 3.4 -- -- 100
2019-11-16 10:00:00 1.9 3 Sudeste 9 Oeste 0.4 -- -- 100
2019-11-16 09:00:00 1.4 4 Oeste 7 Noroeste 0 -- -- 100
2019-11-16 08:00:00 0.9 5 Noroeste 7 Noroeste 0 -- -- 100
2019-11-16 07:00:00 1 2 Sur 8 Oeste 0 -- -- 100
2019-11-16 06:00:00 1.3 4 Oeste 10 Sudoeste 0 -- -- 100
2019-11-16 05:00:00 1.8 4 Sudoeste 8 Oeste 0 -- -- 100
2019-11-16 04:00:00 2 6 Sudoeste 10 Sudoeste 0 -- -- 100
2019-11-16 03:00:00 2.8 3 Sudoeste 8 Sudoeste 0 -- -- 100
2019-11-16 02:00:00 3 3 Oeste 9 Oeste 0 -- -- 100
2019-11-16 01:00:00 3.3 6 Sudoeste 9 Sudoeste 0 -- -- 100
2019-11-16 00:00:00 3.5 3 Noroeste 6 Oeste 0 -- -- 100
2019-11-15 23:00:00 3.8 5 Noroeste 8 Oeste 0 -- -- 100
2019-11-15 22:00:00 4.3 3 Oeste 6 Oeste 0.2 -- -- 100
2019-11-15 21:00:00 4.7 2 Oeste 5 Este 0.6 -- -- 100
2019-11-15 20:00:00 4.7 0 Calma 6 Oeste 0.2 -- -- 99
2019-11-15 19:00:00 4.8 3 Sur 17 Oeste 0.2 -- -- 99
2019-11-15 18:00:00 4.6 12 Oeste 25 Oeste 1.2 -- -- 99
2019-11-15 17:00:00 4.8 15 Oeste 26 Oeste 2.4 -- -- 99
2019-11-15 16:00:00 4.8 12 Oeste 23 Oeste 0.8 -- -- 97
2019-11-15 15:00:00 5.6 9 Noroeste 27 Norte 0.8 -- -- 91
2019-11-15 14:00:00 8 4 Sudoeste 11 Sudeste 0 -- -- 91
2019-11-15 13:00:00 7.3 6 Sur 18 Norte 0.4 -- -- 93
2019-11-15 12:00:00 6.5 5 Sudeste 24 Sudoeste 0.8 -- -- 99
2019-11-15 11:00:00 5.1 16 Oeste 28 Oeste 1.8 -- -- 97
2019-11-15 10:00:00 4.9 6 Oeste 16 Oeste 0.6 -- -- 96
2019-11-15 09:00:00 4.4 8 Oeste 16 Oeste 0.8 -- -- 99
2019-11-15 08:00:00 4.4 7 Oeste 13 Oeste 2.2 -- -- 98
2019-11-15 07:00:00 4.8 6 Oeste 20 Sudoeste 1 -- -- 93
2019-11-15 06:00:00 5.1 12 Oeste 21 Oeste 0.2 -- -- 92
2019-11-15 05:00:00 5.1 8 Oeste 21 Oeste 0 -- -- 89
2019-11-15 04:00:00 5 4 Sudoeste 15 Oeste 0.2 -- -- 91
2019-11-15 03:00:00 4.8 6 Noroeste 9 Noroeste 0 -- -- 97
2019-11-15 02:00:00 4.6 5 Noroeste 7 Oeste 0 -- -- 98
2019-11-15 01:00:00 4.8 5 Oeste 8 Sudoeste 0 -- -- 97
2019-11-15 00:00:00 5.1 5 Oeste 21 Oeste 0.2 -- -- 96
2019-11-14 23:00:00 5.2 10 Oeste 13 Oeste 0 -- -- 96
2019-11-14 22:00:00 5.6 3 Este 5 Sudeste 0 -- -- 95
2019-11-14 21:00:00 5.7 2 Este 4 Este 0 -- -- 94
2019-11-14 20:00:00 6.1 3 Sudeste 6 Oeste 0 -- -- 92
2019-11-14 19:00:00 6.4 5 Oeste 10 Este 0 -- -- 88
2019-11-14 18:00:00 7.9 2 Sur 11 Oeste 0 -- -- 81
2019-11-14 17:00:00 9.9 3 Oeste 8 Oeste 0 -- -- 72
2019-11-14 16:00:00 9.6 5 Sur 21 Oeste 0 -- -- 63
2019-11-14 15:00:00 10.7 8 Oeste 22 Sudeste 0 -- -- 59
2019-11-14 14:00:00 10.9 10 Sudeste 20 Sur 0 -- -- 64
2019-11-14 13:00:00 8.9 8 Oeste 14 Noroeste 0 -- -- 71
2019-11-14 12:00:00 8.9 4 Sudoeste 15 Oeste 0 -- -- 80
2019-11-14 11:00:00 7 4 Oeste 10 Sudeste 0 -- -- 89
2019-11-14 10:00:00 4.8 3 Oeste 7 Sudeste 0 -- -- 100
2019-11-14 09:00:00 3.6 3 Sudoeste 10 Noroeste 0 -- -- 99
2019-11-14 08:00:00 3.6 2 Sudeste 11 Noroeste 0 -- -- 98
2019-11-14 07:00:00 3.8 4 Noroeste 12 Sudoeste 0.2 -- -- 98
2019-11-14 06:00:00 4.4 5 Sudoeste 17 Oeste 2.6 -- -- 98
2019-11-14 05:00:00 4.9 6 Oeste 20 Oeste 3.6 -- -- 97
2019-11-14 04:00:00 6.1 3 Noroeste 26 Oeste 4.8 -- -- 98
2019-11-14 03:00:00 6.8 10 Oeste 30 Oeste 4.4 -- -- 96
2019-11-14 02:00:00 8.8 12 Noroeste 35 Oeste 0.6 -- -- 91
2019-11-14 01:00:00 7.9 6 Noroeste 12 Oeste 0 -- -- 99
2019-11-14 00:00:00 7.5 5 Oeste 9 Oeste 0 -- -- 99
2019-11-13 23:00:00 7.9 4 Oeste 10 Noroeste 0 -- -- 97
2019-11-13 22:00:00 7.9 6 Noroeste 12 Norte 0 -- -- 99
2019-11-13 21:00:00 8.1 3 Sudeste 5 Sudeste 0 -- -- 98
2019-11-13 20:00:00 8.3 4 Este 10 Noroeste 0 -- -- 96
2019-11-13 19:00:00 8.2 6 Noroeste 8 Noroeste 0 -- -- 96
2019-11-13 18:00:00 9.2 4 Oeste 9 Noroeste 0 -- -- 93
2019-11-13 17:00:00 10.4 5 Oeste 10 Oeste 0 -- -- 91
2019-11-13 16:00:00 10.4 5 Oeste 27 Oeste 0.2 -- -- 89
2019-11-13 15:00:00 10.7 10 Oeste 22 Oeste 0 -- -- 81
2019-11-13 14:00:00 11.2 6 Norte 26 Oeste 0 -- -- 83
2019-11-13 13:00:00 11.2 6 Noroeste 14 Noroeste 0.2 -- -- 98
2019-11-13 12:00:00 9.9 4 Sudeste 8 Sudeste 0.8 -- -- 100
2019-11-13 11:00:00 9.1 4 Sudoeste 8 Sudeste 1 -- -- 100
2019-11-13 10:00:00 8.6 3 Nordeste 6 Este 0.8 -- -- 100
2019-11-13 09:00:00 8.3 3 Norte 5 Sudeste 0.2 -- -- 100
2019-11-13 08:00:00 8.1 3 Sur 13 Este 1.2 -- -- 100
2019-11-13 07:00:00 8 4 Este 9 Este 2.8 -- -- 100
2019-11-13 06:00:00 7.9 0 Calma 5 Este 0.4 -- -- 100
2019-11-13 05:00:00 7.9 2 Oeste 5 Oeste 2.2 -- -- 100
2019-11-13 04:00:00 7.9 0 Calma 4 Noroeste 0.6 -- -- 100
2019-11-13 03:00:00 7.8 2 Sur 5 Oeste 0 -- -- 100
2019-11-13 02:00:00 7.9 4 Oeste 7 Este 0 -- -- 100
2019-11-13 01:00:00 7.9 2 Sudoeste 6 Noroeste 0.2 -- -- 98
2019-11-13 00:00:00 8.3 3 Este 8 Noroeste 0 -- -- 97
2019-11-12 23:00:00 8.5 5 Este 6 Noroeste 0.4 -- -- 96
2019-11-12 22:00:00 8.6 5 Noroeste 9 Noroeste 0.2 -- -- 100
2019-11-12 21:00:00 8.5 4 Sudoeste 6 Sudoeste 0.8 -- -- 98
2019-11-12 20:00:00 9 3 Noroeste 4 Oeste 0 -- -- 95
2019-11-12 19:00:00 9.6 2 Sudeste 5 Sudeste 0 -- -- 92
2019-11-12 18:00:00 9.9 2 Noroeste 5 Este 0 -- -- 92
2019-11-12 17:00:00 11 3 Este 9 Oeste 0 -- -- 83
2019-11-12 16:00:00 11.2 9 Norte 16 Noroeste 0 -- -- 92
2019-11-12 15:00:00 10.8 7 Este 15 Norte 0 -- -- 94
2019-11-12 14:00:00 11.4 6 Oeste 19 Sudoeste 0 -- -- 98
2019-11-12 13:00:00 9.8 3 Sudoeste 9 Noroeste 0 -- -- 100
2019-11-12 12:00:00 9.2 6 Oeste 19 Oeste 0 -- -- 100
2019-11-12 11:00:00 8.2 10 Oeste 17 Sudoeste 0.4 -- -- 100
2019-11-12 10:00:00 7.6 0 Calma 13 Sudoeste 0.8 -- -- 100
2019-11-12 09:00:00 7.3 6 Sudoeste 20 Oeste 0.2 -- -- 100
2019-11-12 08:00:00 6.9 6 Oeste 11 Sudoeste 0.6 -- -- 100
2019-11-12 07:00:00 6.9 3 Nordeste 8 Oeste 0 -- -- 100
2019-11-12 06:00:00 6.8 6 Oeste 15 Sudoeste 0.2 -- -- 100
2019-11-12 05:00:00 6.3 9 Oeste 16 Oeste 0.2 -- -- 100
2019-11-12 04:00:00 6 7 Oeste 11 Oeste 0.2 -- -- 100
2019-11-12 03:00:00 5.7 2 Sudoeste 11 Oeste 0.2 -- -- 100
2019-11-12 02:00:00 5.8 2 Sudoeste 10 Oeste 0.2 -- -- 100
2019-11-12 01:00:00 5.9 3 Sudoeste 9 Oeste 0.2 -- -- 100
2019-11-12 00:00:00 6 3 Este 9 Este 0.4 -- -- 100
2019-11-11 23:00:00 6.1 3 Oeste 7 Noroeste 0 -- -- 100
2019-11-11 22:00:00 6.8 2 Sudoeste 7 Norte 0.2 -- -- 100
2019-11-11 21:00:00 7.1 5 Nordeste 12 Sudeste 0.6 -- -- 100
2019-11-11 20:00:00 7.5 4 Noroeste 21 Noroeste 0.2 -- -- 99
2019-11-11 19:00:00 7.8 7 Noroeste 14 Noroeste 1.6 -- -- 100
2019-11-11 18:00:00 8 4 Nordeste 9 Noroeste 0 -- -- 100
2019-11-11 17:00:00 8.3 3 Sur 17 Sudeste 0.4 -- -- 100
2019-11-11 16:00:00 8.5 4 Nordeste 23 Noroeste 0.6 -- -- 100
2019-11-11 15:00:00 8.8 15 Noroeste 44 Noroeste 0.2 -- -- 100
2019-11-11 14:00:00 8.4 9 Nordeste 24 Norte 1.4 -- -- 100
2019-11-11 13:00:00 8 3 Sudeste 10 Oeste 1.4 -- -- 100
2019-11-11 12:00:00 7.7 6 Oeste 9 Oeste 1.4 -- -- 100
2019-11-11 11:00:00 6.9 3 Este 6 Noroeste 1.2 -- -- 100
2019-11-11 10:00:00 6.1 3 Oeste 5 Sudoeste 0.2 -- -- 100
2019-11-11 09:00:00 5.6 0 Calma 4 Sudeste 0 -- -- 100
2019-11-11 08:00:00 5.3 2 Oeste 4 Noroeste 0 -- -- 100
2019-11-11 07:00:00 5.2 3 Oeste 7 Noroeste 0.2 -- -- 100
2019-11-11 06:00:00 4.8 0 Calma 4 Oeste 0.4 -- -- 100
2019-11-11 05:00:00 4.6 2 Sudoeste 9 Oeste 0 -- -- 100
2019-11-11 04:00:00 4.5 2 Sudoeste 8 Noroeste 0 -- -- 100
2019-11-11 03:00:00 4.5 4 Noroeste 9 Oeste 0 -- -- 100
2019-11-11 02:00:00 4.5 3 Oeste 8 Este 0.4 -- -- 100
2019-11-11 01:00:00 4.5 3 Norte 9 Noroeste 0 -- -- 100
2019-11-11 00:00:00 4.8 5 Noroeste 10 Oeste 0 -- -- 100
2019-11-10 23:00:00 5.2 4 Sur 8 Noroeste 1 -- -- 100
2019-11-10 22:00:00 5.1 6 Noroeste 10 Oeste 1 -- -- 100
2019-11-10 21:00:00 5.1 4 Noroeste 13 Sudeste 1.8 -- -- 100
2019-11-10 20:00:00 5.2 7 Oeste 21 Oeste 1.2 -- -- 100
2019-11-10 19:00:00 5.3 2 Oeste 6 Noroeste 0 -- -- 100
2019-11-10 18:00:00 5.5 5 Oeste 13 Oeste 0.2 -- -- 100
2019-11-10 17:00:00 6.2 7 Oeste 20 Oeste 0 -- -- 100
2019-11-10 16:00:00 5.9 9 Oeste 21 Oeste 0.8 -- -- 100
2019-11-10 15:00:00 5.6 6 Sudoeste 15 Oeste 2.2 -- -- 100
2019-11-10 14:00:00 5.4 4 Oeste 36 Oeste 5.2 -- -- 100
2019-11-10 13:00:00 6.1 24 Oeste 37 Oeste 0.2 -- -- 100
2019-11-10 12:00:00 6.5 10 Oeste 23 Oeste 0 -- -- 100
2019-11-10 11:00:00 5.2 7 Oeste 16 Oeste 3.6 -- -- 100
2019-11-10 10:00:00 5.2 6 Sudoeste 23 Oeste 1.4 -- -- 100
2019-11-10 09:00:00 4.9 8 Oeste 18 Oeste 1.8 -- -- 100
2019-11-10 08:00:00 4.6 6 Oeste 11 Oeste 1.4 -- -- 100
2019-11-10 07:00:00 4.9 4 Sudoeste 17 Oeste 2.4 -- -- 100
2019-11-10 06:00:00 5.2 14 Oeste 20 Oeste 3 -- -- 100
2019-11-10 05:00:00 5.5 16 Oeste 32 Oeste 0.6 -- -- 100
2019-11-10 04:00:00 5.4 12 Oeste 24 Oeste 1 -- -- 100
2019-11-10 03:00:00 5.5 14 Oeste 35 Oeste 1.2 -- -- 100
2019-11-10 02:00:00 6.3 3 Sur 28 Oeste 0.4 -- -- 100
2019-11-10 01:00:00 6.4 12 Oeste 24 Oeste 0.2 -- -- 100
2019-11-10 00:00:00 6.4 6 Noroeste 9 Noroeste 0 -- -- 100
2019-11-09 23:00:00 6.8 4 Sudeste 15 Oeste 0.6 -- -- 100
2019-11-09 22:00:00 7.2 5 Sudoeste 17 Sudoeste 6.6 -- -- 100
2019-11-09 21:00:00 7.9 3 Sudoeste 18 Sudoeste 3 -- -- 100
2019-11-09 20:00:00 8.8 11 Noroeste 42 Oeste 2.4 -- -- 96
2019-11-09 19:00:00 9.7 9 Oeste 29 Sudoeste 0.6 -- -- 97
2019-11-09 18:00:00 9.1 5 Noroeste 12 Sudeste 0.4 -- -- 100
2019-11-09 17:00:00 9.5 4 Sudeste 13 Noroeste 0.6 -- -- 100
2019-11-09 16:00:00 9.3 8 Noroeste 13 Oeste 0.2 -- -- 99
2019-11-09 15:00:00 9 11 Oeste 17 Sudoeste 0.8 -- -- 98
2019-11-09 14:00:00 10.7 7 Sudoeste 14 Oeste 0 -- -- 95
2019-11-09 13:00:00 9.1 6 Sudoeste 22 Oeste 0.6 -- -- 99
2019-11-09 12:00:00 9.5 6 Oeste 10 Oeste 0 -- -- 100
2019-11-09 11:00:00 8.8 4 Noroeste 7 Noroeste 0 -- -- 100
2019-11-09 10:00:00 7.9 4 Este 8 Este 0 -- -- 100
2019-11-09 09:00:00 7.6 0 Calma 4 Oeste 0.2 -- -- 100
2019-11-09 08:00:00 7.4 3 Oeste 6 Oeste 1 -- -- 100
2019-11-09 07:00:00 7.4 0 Calma 8 Este 0.4 -- -- 100
2019-11-09 06:00:00 7.3 2 Sudeste 9 Este 0.8 -- -- 100
2019-11-09 05:00:00 7.3 2 Sur 13 Oeste 4 -- -- 100
2019-11-09 04:00:00 7 2 Oeste 9 Oeste 0 -- -- 100
2019-11-09 03:00:00 6.9 2 Nordeste 6 Sudeste 1.8 -- -- 100
2019-11-09 02:00:00 7 3 Nordeste 16 Sudoeste 0.8 -- -- 100
2019-11-09 01:00:00 7.1 9 Este 20 Oeste 3.2 -- -- 100
2019-11-09 00:00:00 7.2 9 Sudoeste 23 Oeste 1.6 -- -- 100
2019-11-08 23:00:00 7.3 8 Oeste 28 Nordeste 3.4 -- -- 100
2019-11-08 22:00:00 7.5 8 Oeste 21 Oeste 1.8 -- -- 100
2019-11-08 21:00:00 7.4 9 Sudoeste 23 Sudoeste 2.4 -- -- 100
2019-11-08 20:00:00 7.5 6 Oeste 26 Oeste 5 -- -- 100
2019-11-08 19:00:00 7.5 5 Oeste 46 Oeste 4.4 -- -- 100
2019-11-08 18:00:00 7.5 15 Oeste 32 Norte 2.4 -- -- 100
2019-11-08 17:00:00 6.9 13 Oeste 37 Oeste 9.4 -- -- 100
2019-11-08 16:00:00 6.4 7 Oeste 15 Oeste 0.8 -- -- 100
2019-11-08 15:00:00 5.6 9 Oeste 18 Oeste 6 -- -- 100
2019-11-08 14:00:00 5.4 12 Oeste 24 Oeste 3 -- -- 100
2019-11-08 13:00:00 5.6 6 Oeste 32 Oeste 4.2 -- -- 100
2019-11-08 12:00:00 5.8 17 Oeste 37 Oeste 4.2 -- -- 99
2019-11-08 11:00:00 5.8 9 Oeste 15 Sudoeste 1.8 -- -- 100
2019-11-08 10:00:00 5.6 4 Sur 9 Sudoeste 2.6 -- -- 100
2019-11-08 09:00:00 5.3 5 Sudeste 8 Sudeste 2 -- -- 99
2019-11-08 08:00:00 5.1 4 Este 7 Oeste 1 -- -- 98
2019-11-08 07:00:00 5.1 3 Sudoeste 22 Oeste 1.2 -- -- 94
2019-11-08 06:00:00 5.2 8 Oeste 29 Oeste 0.6 -- -- 92
2019-11-08 05:00:00 5 9 Oeste 24 Oeste 1.2 -- -- 97
2019-11-08 04:00:00 5.3 8 Oeste 39 Oeste 0.8 -- -- 91
2019-11-08 03:00:00 5.4 23 Oeste 42 Oeste 0.2 -- -- 94
2019-11-08 02:00:00 3.9 7 Noroeste 13 Oeste 0 -- -- 100
2019-11-08 01:00:00 3.3 3 Oeste 7 Oeste 0 -- -- 100
2019-11-08 00:00:00 3.4 6 Oeste 10 Oeste 0.2 -- -- 100
2019-11-07 23:00:00 3.9 5 Noroeste 9 Noroeste 0 -- -- 100
2019-11-07 22:00:00 4 6 Oeste 10 Oeste 0 -- -- 99
2019-11-07 21:00:00 4.6 0 Calma 12 Noroeste 0 -- -- 98
2019-11-07 20:00:00 4.9 7 Noroeste 9 Noroeste 0 -- -- 97
2019-11-07 19:00:00 5.5 5 Este 15 Este 0.4 -- -- 96
2019-11-07 18:00:00 5.8 12 Sudoeste 59 Noroeste 4.2 -- -- 92
2019-11-07 17:00:00 9.4 12 Noroeste 23 Noroeste 0 -- -- 79
2019-11-07 16:00:00 10.6 6 Sudoeste 23 Noroeste 0 -- -- 71
2019-11-07 15:00:00 11.8 9 Noroeste 23 Noroeste 0 -- -- 61
2019-11-07 14:00:00 11.5 12 Oeste 28 Oeste 0 -- -- 68
2019-11-07 13:00:00 9.8 6 Oeste 28 Oeste 0 -- -- 77
2019-11-07 12:00:00 10.6 8 Sudeste 17 Oeste 0 -- -- 85
2019-11-07 11:00:00 9.3 5 Sur 23 Oeste 0 -- -- 88
2019-11-07 10:00:00 7.9 4 Sur 17 Oeste 0.4 -- -- 97
2019-11-07 09:00:00 7.9 7 Sudoeste 21 Oeste 0 -- -- 97
2019-11-07 08:00:00 8.2 5 Sur 24 Oeste 1.8 -- -- 97
2019-11-07 07:00:00 8.7 10 Oeste 35 Oeste 1.2 -- -- 99
2019-11-07 06:00:00 9.1 5 Sudoeste 15 Sudoeste 1.2 -- -- 99
2019-11-07 05:00:00 9.6 7 Oeste 29 Oeste 0 -- -- 97
2019-11-07 04:00:00 10.1 8 Oeste 35 Oeste 2 -- -- 96
2019-11-07 03:00:00 10.7 4 Oeste 17 Oeste 1.8 -- -- 98
2019-11-07 02:00:00 10.9 8 Noroeste 14 Oeste 0.4 -- -- 96
2019-11-07 01:00:00 11.5 5 Noroeste 13 Noroeste 0.4 -- -- 90
2019-11-07 00:00:00 11.4 8 Noroeste 22 Oeste 0.8 -- -- 89
2019-11-06 23:00:00 11.4 11 Oeste 21 Oeste 0.4 -- -- 87
2019-11-06 22:00:00 10.9 4 Oeste 8 Oeste 0 -- -- 83
2019-11-06 21:00:00 10.4 2 Noroeste 10 Noroeste 0 -- -- 88
2019-11-06 20:00:00 10 4 Oeste 8 Oeste 0 -- -- 96
2019-11-06 19:00:00 10.8 0 Calma 5 Sudeste 0 -- -- 94
2019-11-06 18:00:00 11.8 3 Este 5 Oeste 0 -- -- 90
2019-11-06 17:00:00 12.1 5 Noroeste 8 Noroeste 0 -- -- 85
2019-11-06 16:00:00 12.7 4 Sur 10 Sudoeste 0 -- -- 85
2019-11-06 15:00:00 12.3 4 Sur 10 Sudoeste 0 -- -- 88
2019-11-06 14:00:00 11.3 8 Oeste 14 Sudoeste 0 -- -- 94
2019-11-06 13:00:00 10.6 4 Sudoeste 16 Oeste 0 -- -- 97
2019-11-06 12:00:00 10.2 6 Sudoeste 17 Oeste 0.2 -- -- 100
2019-11-06 11:00:00 10.7 8 Sudoeste 13 Oeste 0 -- -- 100
2019-11-06 10:00:00 9.4 10 Oeste 25 Noroeste 0.6 -- -- 100
2019-11-06 09:00:00 9 10 Oeste 17 Oeste 1.6 -- -- 100
2019-11-06 08:00:00 8.8 4 Noroeste 14 Oeste 1.2 -- -- 100
2019-11-06 07:00:00 8.8 5 Oeste 8 Sudoeste 0.4 -- -- 100
2019-11-06 06:00:00 8.7 2 Norte 14 Este 0.2 -- -- 100
2019-11-06 05:00:00 8.8 9 Este 12 Este 1.2 -- -- 100
2019-11-06 04:00:00 9 3 Sudeste 12 Sudeste 0.6 -- -- 99
2019-11-06 03:00:00 9.3 5 Sudoeste 22 Oeste 0.4 -- -- 99
2019-11-06 02:00:00 9.4 6 Noroeste 24 Sudoeste 2 -- -- 100
2019-11-06 01:00:00 9.2 5 Este 15 Sudeste 1.6 -- -- 100
2019-11-06 00:00:00 9 5 Sur 30 Noroeste 4 -- -- 100
2019-11-05 23:00:00 8.9 7 Sudoeste 17 Sudoeste 1.2 -- -- 99
2019-11-05 22:00:00 9.1 5 Sudoeste 24 Oeste 1 -- -- 99
2019-11-05 21:00:00 9.1 4 Sudoeste 15 Sudoeste 0.4 -- -- 99
2019-11-05 20:00:00 9.1 4 Sudoeste 15 Sudoeste 1 -- -- 99
2019-11-05 19:00:00 9 9 Sudoeste 28 Sudoeste 0.8 -- -- 99
2019-11-05 18:00:00 9 8 Sudoeste 33 Sudoeste 2.4 -- -- 99
2019-11-05 17:00:00 8.7 5 Sudoeste 13 Sudoeste 3.8 -- -- 99
2019-11-05 16:00:00 8.7 3 Sur 10 Este 1.8 -- -- 98
2019-11-05 15:00:00 8.4 3 Sur 21 Oeste 2.6 -- -- 97
2019-11-05 14:00:00 8.7 14 Oeste 33 Oeste 1.2 -- -- 91
2019-11-05 13:00:00 9.4 17 Oeste 28 Oeste 0 -- -- 82
2019-11-05 12:00:00 8.5 5 Sudoeste 37 Oeste 2 -- -- 93
2019-11-05 11:00:00 9.3 18 Oeste 34 Sudoeste 0.2 -- -- 82
2019-11-05 10:00:00 8.7 13 Oeste 28 Oeste 1.2 -- -- 87
2019-11-05 09:00:00 9.3 8 Oeste 22 Oeste 0 -- -- 82
2019-11-05 08:00:00 9.2 8 Oeste 21 Oeste 0 -- -- 78
2019-11-05 07:00:00 8.2 6 Oeste 14 Noroeste 0 -- -- 88
2019-11-05 06:00:00 7.2 5 Oeste 8 Noroeste 0 -- -- 100
2019-11-05 05:00:00 7 4 Oeste 14 Oeste 0 -- -- 100
2019-11-05 04:00:00 7 6 Oeste 11 Noroeste 0 -- -- 100
2019-11-05 03:00:00 7.3 6 Oeste 10 Oeste 0 -- -- 100
2019-11-05 02:00:00 7.8 6 Oeste 10 Oeste 0 -- -- 100
2019-11-05 01:00:00 8.4 5 Nordeste 11 Oeste 0 -- -- 100
2019-11-05 00:00:00 9.1 3 Oeste 5 Este 0 -- -- 98
2019-11-04 23:00:00 9.4 3 Noroeste 6 Sudoeste 0 -- -- 98
2019-11-04 22:00:00 9.7 3 Oeste 6 Oeste 0 -- -- 98
2019-11-04 21:00:00 9.9 2 Sudoeste 6 Noroeste 0 -- -- 98
2019-11-04 20:00:00 10.2 3 Norte 12 Noroeste 0 -- -- 97
2019-11-04 19:00:00 10.4 3 Este 17 Este 0.2 -- -- 96
2019-11-04 18:00:00 11.3 3 Sudoeste 10 Oeste 1.2 -- -- 94
2019-11-04 17:00:00 12 4 Este 10 Sudeste 0 -- -- 98
2019-11-04 16:00:00 12.1 3 Nordeste 15 Este 1.6 -- -- 98
2019-11-04 15:00:00 12.4 6 Este 12 Este 3.8 -- -- 97
2019-11-04 14:00:00 13.1 2 Nordeste 27 Norte 4.6 -- -- 94
2019-11-04 13:00:00 15.2 8 Noroeste 26 Oeste 0 -- -- 86
2019-11-04 12:00:00 15.7 15 Noroeste 45 Oeste 0.2 -- -- 78
2019-11-04 11:00:00 17.5 26 Oeste 66 Oeste 0 -- -- 65
2019-11-04 10:00:00 17.3 30 Oeste 69 Oeste 0 -- -- 64
2019-11-04 09:00:00 16.9 20 Oeste 60 Oeste 0 -- -- 65
2019-11-04 08:00:00 16.7 19 Oeste 39 Oeste 0 -- -- 64
2019-11-04 07:00:00 16.8 23 Sudoeste 46 Oeste 0 -- -- 63
2019-11-04 06:00:00 17.1 18 Oeste 44 Sudoeste 0 -- -- 65
2019-11-04 05:00:00 17.1 18 Sudoeste 53 Oeste 0 -- -- 67
2019-11-04 04:00:00 16.8 15 Oeste 39 Oeste 0 -- -- 71
2019-11-04 03:00:00 15.9 6 Sudoeste 23 Oeste 0 -- -- 75
2019-11-04 02:00:00 15.4 6 Oeste 18 Oeste 0 -- -- 77
2019-11-04 01:00:00 14.5 2 Oeste 10 Este 0 -- -- 80
2019-11-04 00:00:00 14.2 3 Este 12 Noroeste 0 -- -- 80
2019-11-03 23:00:00 13.5 5 Noroeste 21 Sudoeste 0 -- -- 83
2019-11-03 22:00:00 12.3 14 Oeste 23 Oeste 0.8 -- -- 90
2019-11-03 21:00:00 11 6 Noroeste 13 Noroeste 0.8 -- -- 91
2019-11-03 20:00:00 11 3 Oeste 8 Noroeste 0 -- -- 86
2019-11-03 19:00:00 12 3 Sur 9 Noroeste 0 -- -- 79
2019-11-03 18:00:00 13.2 3 Sudeste 7 Este 0 -- -- 74
2019-11-03 17:00:00 14.2 5 Este 8 Este 0 -- -- 64
2019-11-03 16:00:00 14.8 3 Oeste 26 Sudoeste 0 -- -- 60
2019-11-03 15:00:00 14.6 10 Oeste 34 Sudoeste 0 -- -- 61
2019-11-03 14:00:00 13.9 16 Oeste 32 Oeste 0 -- -- 60
2019-11-03 13:00:00 12.5 15 Oeste 33 Sudoeste 0 -- -- 67
2019-11-03 12:00:00 12.3 15 Oeste 35 Noroeste 0 -- -- 68
2019-11-03 11:00:00 12.2 22 Oeste 45 Oeste 0 -- -- 68
2019-11-03 10:00:00 12 19 Oeste 45 Oeste 0 -- -- 67
2019-11-03 09:00:00 11.2 19 Oeste 56 Oeste 0 -- -- 72
2019-11-03 08:00:00 11.1 18 Oeste 60 Oeste 0 -- -- 71
2019-11-03 07:00:00 10.6 22 Oeste 69 Sudoeste 2 -- -- 75
2019-11-03 06:00:00 11.3 14 Oeste 53 Oeste 1.4 -- -- 86
2019-11-03 05:00:00 12.9 23 Oeste 63 Oeste 2.8 -- -- 86
2019-11-03 04:00:00 16.1 39 Oeste 80 Oeste 0 -- -- 66
2019-11-03 03:00:00 16 18 Sudoeste 50 Oeste 0 -- -- 66
2019-11-03 02:00:00 16.6 22 Oeste 60 Sudoeste 0 -- -- 61
2019-11-03 01:00:00 16.8 24 Oeste 49 Oeste 0 -- -- 59
2019-11-03 00:00:00 16.8 32 Oeste 58 Oeste 0 -- -- 58
2019-11-02 23:00:00 16.7 22 Oeste 63 Oeste 0 -- -- 60
2019-11-02 22:00:00 16.8 21 Oeste 54 Oeste 0 -- -- 56
2019-11-02 21:00:00 16.5 12 Sudoeste 45 Oeste 0 -- -- 64
2019-11-02 20:00:00 16.1 16 Oeste 36 Oeste 0 -- -- 70
2019-11-02 19:00:00 14.4 4 Noroeste 11 Noroeste 0 -- -- 94
2019-11-02 18:00:00 14.3 3 Norte 11 Este 0 -- -- 97
2019-11-02 17:00:00 14.9 5 Este 11 Este 0 -- -- 98
2019-11-02 16:00:00 15.1 3 Nordeste 12 Este 0 -- -- 98
2019-11-02 15:00:00 15.4 6 Este 14 Este 0 -- -- 98
2019-11-02 14:00:00 15.7 5 Noroeste 15 Este 0 -- -- 99
2019-11-02 13:00:00 15.6 3 Sudeste 10 Sudeste 0.2 -- -- 100
2019-11-02 12:00:00 14.9 5 Sudeste 8 Este 2 -- -- 100
2019-11-02 11:00:00 14.9 5 Sudeste 12 Oeste 6.6 -- -- 100
2019-11-02 10:00:00 14.8 3 Este 6 Sudeste 6.6 -- -- 100
2019-11-02 09:00:00 14.5 3 Sudeste 7 Noroeste 1.4 -- -- 99
2019-11-02 08:00:00 14.5 4 Este 13 Este 0 -- -- 97
2019-11-02 07:00:00 14.6 2 Este 10 Oeste 0 -- -- 95
2019-11-02 06:00:00 14.6 4 Sudeste 10 Oeste 0 -- -- 95
2019-11-02 05:00:00 14.6 5 Oeste 10 Oeste 0 -- -- 100
2019-11-02 04:00:00 13.6 5 Noroeste 8 Oeste 0 -- -- 100
2019-11-02 03:00:00 13.8 6 Noroeste 10 Oeste 0 -- -- 100
2019-11-02 02:00:00 14 2 Sudoeste 8 Noroeste 0.2 -- -- 100
2019-11-02 01:00:00 14.5 2 Sur 10 Oeste 0 -- -- 100
2019-11-02 00:00:00 14.9 6 Oeste 9 Oeste 0 -- -- 100
2019-11-01 23:00:00 15.4 4 Oeste 8 Oeste 0 -- -- 100
2019-11-01 22:00:00 15.8 2 Oeste 8 Noroeste 0 -- -- 99
2019-11-01 21:00:00 16.2 3 Este 10 Este 0.8 -- -- 99
2019-11-01 20:00:00 16.8 3 Sudeste 5 Sudeste 0 -- -- 98
2019-11-01 19:00:00 16.9 4 Norte 9 Este 0.2 -- -- 98
2019-11-01 18:00:00 17.2 4 Sur 17 Sudoeste 12.8 -- -- 98
2019-11-01 17:00:00 17.8 6 Oeste 31 Oeste 4.2 -- -- 95
2019-11-01 16:00:00 21 5 Oeste 15 Noroeste 0 -- -- 79
2019-11-01 15:00:00 21.5 3 Sudoeste 7 Sudoeste 0 -- -- 77
2019-11-01 14:00:00 21.6 5 Sudoeste 10 Sudeste 0 -- -- 75
2019-11-01 13:00:00 20.2 3 Noroeste 6 Sur 0 -- -- 83
2019-11-01 12:00:00 17.1 0 Calma 6 Este 0 -- -- 100
2019-11-01 11:00:00 15.6 2 Noroeste 10 Este 0 -- -- 100
2019-11-01 10:00:00 14.2 0 Calma 4 Sudeste 0 -- -- 100
2019-11-01 09:00:00 13.7 0 Calma 5 Sudoeste 0.2 -- -- 100
2019-11-01 08:00:00 13.4 3 Este 5 Este 0 -- -- 100
2019-11-01 07:00:00 13.5 0 Calma 6 Este 0.2 -- -- 100
2019-11-01 06:00:00 13.4 0 Calma 5 Noroeste 0.8 -- -- 100
2019-11-01 05:00:00 13.2 0 Calma 6 Oeste 0 -- -- 100
2019-11-01 04:00:00 13.1 2 Oeste 4 Oeste 0 -- -- 100
2019-11-01 03:00:00 13.2 2 Norte 8 Este 0 -- -- 100
2019-11-01 02:00:00 13 3 Este 5 Este 0 -- -- 100
2019-11-01 01:00:00 13 0 Calma 4 Este 0 -- -- 99
2019-11-01 00:00:00 13 3 Noroeste 4 Este 0 -- -- 99
2019-10-31 23:00:00 13.2 3 Noroeste 4 Noroeste 0 -- -- 98
2019-10-31 22:00:00 13.2 3 Oeste 5 Oeste 0 -- -- 98
2019-10-31 21:00:00 13.8 4 Noroeste 7 Oeste 0 -- -- 97
2019-10-31 20:00:00 15 2 Oeste 4 Oeste 0 -- -- 95
2019-10-31 19:00:00 15.8 4 Este 10 Este 0 -- -- 91
2019-10-31 18:00:00 16.2 4 Nordeste 13 Nordeste 0 -- -- 89
2019-10-31 17:00:00 16.7 4 Nordeste 10 Norte 0 -- -- 91
2019-10-31 16:00:00 16.4 6 Este 13 Este 0 -- -- 93
2019-10-31 15:00:00 17 5 Nordeste 15 Sudeste 0.8 -- -- 88
2019-10-31 14:00:00 17.5 3 Nordeste 13 Norte 0 -- -- 85
2019-10-31 13:00:00 16.7 4 Norte 12 Este 0.2 -- -- 93
2019-10-31 12:00:00 16.3 8 Este 12 Este 0.2 -- -- 95
2019-10-31 11:00:00 16.2 8 Sudeste 12 Sudeste 0 -- -- 98
2019-10-31 10:00:00 15.6 3 Este 6 Este 0 -- -- 100
2019-10-31 09:00:00 15.1 2 Este 7 Este 0 -- -- 100
2019-10-31 08:00:00 14.8 3 Este 14 Este 0.2 -- -- 100
2019-10-31 07:00:00 15 2 Nordeste 4 Este 1 -- -- 99
2019-10-31 06:00:00 15.1 3 Noroeste 7 Noroeste 0.6 -- -- 99
2019-10-31 05:00:00 15.1 2 Sudeste 4 Este 0.8 -- -- 98
2019-10-31 04:00:00 15.2 0 Calma 4 Sudoeste 0 -- -- 98
2019-10-31 03:00:00 15.3 2 Noroeste 6 Este 0.2 -- -- 97
2019-10-31 02:00:00 15.3 3 Nordeste 17 Este 0.6 -- -- 97
2019-10-31 01:00:00 16.2 2 Sudeste 10 Este 0.6 -- -- 90
2019-10-31 00:00:00 16.7 4 Noroeste 7 Este 0 -- -- 85
2019-10-30 23:00:00 16.9 2 Oeste 11 Oeste 0 -- -- 83
2019-10-30 22:00:00 16.9 6 Noroeste 9 Oeste 0 -- -- 84
2019-10-30 21:00:00 17.7 5 Noroeste 9 Oeste 0.2 -- -- 79
2019-10-30 20:00:00 19 6 Oeste 18 Sudoeste 0 -- -- 69
2019-10-30 19:00:00 19 8 Oeste 18 Oeste 0 -- -- 68
2019-10-30 18:00:00 19.5 9 Oeste 17 Sudoeste 0 -- -- 67
2019-10-30 17:00:00 20.3 5 Oeste 16 Sudoeste 0 -- -- 65
2019-10-30 16:00:00 21.4 7 Sudoeste 20 Sur 0 -- -- 61
2019-10-30 15:00:00 22 11 Sudoeste 24 Sur 0 -- -- 59
2019-10-30 14:00:00 22.1 9 Sudoeste 19 Sudoeste 0 -- -- 62
2019-10-30 13:00:00 21.7 4 Sudeste 8 Sudeste 0 -- -- 68
2019-10-30 12:00:00 17.8 3 Sudeste 7 Este 0 -- -- 95
2019-10-30 11:00:00 13.9 2 Oeste 6 Oeste 0 -- -- 100
2019-10-30 10:00:00 12.5 2 Sudoeste 6 Sudeste 0 -- -- 100
2019-10-30 09:00:00 12 2 Sur 5 Oeste 0 -- -- 100
2019-10-30 08:00:00 11.9 4 Noroeste 6 Noroeste 0 -- -- 100
2019-10-30 07:00:00 11.9 0 Calma 6 Oeste 0 -- -- 100
2019-10-30 06:00:00 12 3 Noroeste 5 Oeste 0 -- -- 100
2019-10-30 05:00:00 12 0 Calma 4 Oeste 0 -- -- 100
2019-10-30 04:00:00 12 0 Calma 5 Noroeste 0 -- -- 100
2019-10-30 03:00:00 12.1 3 Oeste 5 Oeste 0 -- -- 99
2019-10-30 02:00:00 12.3 0 Calma 3 Este 0 -- -- 98
2019-10-30 01:00:00 12.9 0 Calma 3 Noroeste 0 -- -- 97
2019-10-30 00:00:00 13.5 0 Calma 4 Este 0 -- -- 96
2019-10-29 23:00:00 14.2 2 Noroeste 6 Noroeste 0 -- -- 95
2019-10-29 22:00:00 14.7 4 Noroeste 6 Noroeste 0 -- -- 94
2019-10-29 21:00:00 15.3 3 Oeste 7 Noroeste 0 -- -- 93
2019-10-29 20:00:00 15.9 3 Noroeste 7 Este 0 -- -- 90
2019-10-29 19:00:00 16.7 4 Nordeste 17 Este 0 -- -- 87
2019-10-29 18:00:00 17.2 6 Nordeste 18 Este 0 -- -- 85
2019-10-29 17:00:00 18.5 7 Este 21 Este 0 -- -- 81
2019-10-29 16:00:00 19.4 14 Este 23 Este 0 -- -- 79
2019-10-29 15:00:00 21.4 8 Este 18 Nordeste 0 -- -- 68
2019-10-29 14:00:00 23.5 11 Noroeste 20 Noroeste 0 -- -- 55
2019-10-29 13:00:00 23.5 5 Sur 14 Sudoeste 0 -- -- 59
2019-10-29 12:00:00 21.8 4 Sudoeste 9 Sudoeste 0 -- -- 64
2019-10-29 11:00:00 19.5 3 Oeste 7 Sur 0 -- -- 74
2019-10-29 10:00:00 15.4 3 Noroeste 7 Este 0 -- -- 89
2019-10-29 09:00:00 15.1 4 Noroeste 9 Noroeste 0 -- -- 87
2019-10-29 08:00:00 11.4 3 Sudoeste 6 Sudoeste 0 -- -- 98
2019-10-29 07:00:00 11.9 4 Noroeste 6 Noroeste 0 -- -- 98
2019-10-29 06:00:00 11.8 0 Calma 4 Nordeste 0 -- -- 97
2019-10-29 05:00:00 11.8 2 Sudoeste 6 Oeste 0 -- -- 96
2019-10-29 04:00:00 12.4 3 Oeste 5 Este 0 -- -- 96
2019-10-29 03:00:00 12.8 2 Sudeste 5 Oeste 0 -- -- 95
2019-10-29 02:00:00 13.3 2 Sudeste 8 Sudeste 0 -- -- 93
2019-10-29 01:00:00 13.7 3 Norte 7 Sudeste 0 -- -- 92
2019-10-29 00:00:00 14.3 2 Norte 7 Sudeste 0 -- -- 91
2019-10-28 23:00:00 15.1 0 Calma 5 Sudeste 0 -- -- 87
2019-10-28 22:00:00 15.7 4 Nordeste 6 Sudeste 0 -- -- 85
2019-10-28 21:00:00 17.4 2 Este 6 Sudeste 0 -- -- 77
2019-10-28 20:00:00 19 2 Este 6 Este 0 -- -- 69
2019-10-28 19:00:00 20 2 Noroeste 10 Sudoeste 0 -- -- 68
2019-10-28 18:00:00 21.9 3 Sudeste 9 Este 0 -- -- 59
2019-10-28 17:00:00 23.9 4 Oeste 12 Sudeste 0 -- -- 55
2019-10-28 16:00:00 24.5 4 Sudeste 10 Sudeste 0 -- -- 51
2019-10-28 15:00:00 24.2 5 Noroeste 11 Sudeste 0 -- -- 50
2019-10-28 14:00:00 21 5 Noroeste 10 Noroeste 0 -- -- 59
2019-10-28 13:00:00 19.7 6 Noroeste 14 Oeste 0 -- -- 61
2019-10-28 12:00:00 18.9 6 Oeste 18 Oeste 0 -- -- 62
2019-10-28 11:00:00 18.6 9 Oeste 21 Noroeste 0 -- -- 66
2019-10-28 10:00:00 17.9 7 Oeste 16 Oeste 0 -- -- 65
2019-10-28 09:00:00 17.4 4 Nordeste 13 Noroeste 0 -- -- 63
2019-10-28 08:00:00 17.9 5 Oeste 12 Oeste 0 -- -- 58
2019-10-28 07:00:00 17.8 4 Oeste 13 Oeste 0 -- -- 58
2019-10-28 06:00:00 17.9 6 Oeste 13 Oeste 0 -- -- 57
2019-10-28 05:00:00 18.7 4 Sudoeste 19 Sudoeste 0 -- -- 61
2019-10-28 04:00:00 18.8 7 Oeste 18 Oeste 0 -- -- 58
2019-10-28 03:00:00 19 9 Oeste 20 Oeste 0 -- -- 61
2019-10-28 02:00:00 19.2 13 Oeste 24 Oeste 0 -- -- 60
2019-10-28 01:00:00 19.3 9 Oeste 20 Oeste 0 -- -- 59
2019-10-28 00:00:00 19.2 7 Oeste 16 Oeste 0 -- -- 60
2019-10-27 23:00:00 19.2 9 Oeste 23 Sudoeste 0 -- -- 61
2019-10-27 22:00:00 18.9 4 Noroeste 20 Oeste 0 -- -- 61
2019-10-27 21:00:00 19 5 Noroeste 12 Este 0 -- -- 60
2019-10-27 20:00:00 19.2 6 Noroeste 18 Oeste 0 -- -- 60
2019-10-27 19:00:00 19.6 6 Oeste 17 Sur 0 -- -- 59
2019-10-27 18:00:00 20.1 9 Oeste 16 Sudoeste 0 -- -- 57
2019-10-27 17:00:00 21.9 5 Oeste 15 Sur 0 -- -- 54
2019-10-27 16:00:00 22.6 4 Oeste 17 Oeste 0 -- -- 53
2019-10-27 15:00:00 23.5 7 Oeste 19 Sur 0 -- -- 52
2019-10-27 14:00:00 24 9 Sur 29 Sudeste 0 -- -- 50
2019-10-27 13:00:00 22.8 6 Sudoeste 23 Sur 0 -- -- 52
2019-10-27 12:00:00 22 8 Sudoeste 23 Sudoeste 0 -- -- 56
2019-10-27 11:00:00 20.7 6 Oeste 20 Oeste 0 -- -- 58
2019-10-27 10:00:00 18.3 12 Oeste 26 Oeste 0 -- -- 62
2019-10-27 09:00:00 18.1 9 Oeste 24 Oeste 0 -- -- 62
2019-10-27 08:00:00 17.6 13 Oeste 31 Sudoeste 0 -- -- 63
2019-10-27 07:00:00 17.8 10 Sudoeste 37 Oeste 0 -- -- 62
2019-10-27 06:00:00 17.5 12 Oeste 27 Oeste 0 -- -- 65
2019-10-27 05:00:00 17.8 12 Noroeste 25 Oeste 0 -- -- 65
2019-10-27 04:00:00 17.7 12 Noroeste 26 Noroeste 0 -- -- 65
2019-10-27 03:00:00 17.9 15 Oeste 24 Oeste 0 -- -- 62
2019-10-27 02:00:00 18.2 11 Oeste 22 Oeste 0 -- -- 63
2019-10-27 01:00:00 18.7 9 Oeste 25 Oeste 0 -- -- 59
2019-10-27 00:00:00 19 10 Oeste 23 Oeste 0 -- -- 59
2019-10-26 23:00:00 19.1 8 Oeste 22 Sudoeste 0 -- -- 61
2019-10-26 22:00:00 19.1 12 Oeste 27 Oeste 0 -- -- 62
2019-10-26 21:00:00 19.6 12 Oeste 24 Oeste 0 -- -- 59
2019-10-26 20:00:00 19.8 12 Noroeste 27 Oeste 0 -- -- 57
2019-10-26 19:00:00 20.5 8 Noroeste 22 Sudoeste 0 -- -- 58
2019-10-26 18:00:00 22.1 6 Sudoeste 27 Sur 0 -- -- 54
2019-10-26 17:00:00 23.2 14 Sur 37 Sur 0 -- -- 49
2019-10-26 16:00:00 23.9 16 Sur 31 Sur 0 -- -- 49
2019-10-26 15:00:00 24 12 Sur 30 Sur 0 -- -- 51
2019-10-26 14:00:00 23.2 12 Sur 37 Sur 0 -- -- 55
2019-10-26 13:00:00 21.4 14 Sudoeste 33 Sudoeste 0 -- -- 59
2019-10-26 12:00:00 19.6 12 Oeste 33 Sudoeste 0 -- -- 64
2019-10-26 11:00:00 18.5 11 Oeste 31 Oeste 0 -- -- 66
2019-10-26 10:00:00 17.6 14 Oeste 33 Oeste 0 -- -- 67
2019-10-26 09:00:00 17.2 10 Noroeste 28 Sudoeste 0 -- -- 68
2019-10-26 08:00:00 16.7 12 Oeste 34 Oeste 0 -- -- 70
2019-10-26 07:00:00 16.6 11 Noroeste 24 Oeste 0 -- -- 70
2019-10-26 06:00:00 16.6 9 Sudoeste 28 Noroeste 0 -- -- 70
2019-10-26 05:00:00 17.1 12 Oeste 26 Oeste 0 -- -- 67
2019-10-26 04:00:00 16.5 11 Oeste 20 Noroeste 0 -- -- 70
2019-10-26 03:00:00 16.4 9 Noroeste 18 Noroeste 0 -- -- 65
2019-10-26 02:00:00 14 6 Oeste 13 Noroeste 0 -- -- 75
2019-10-26 01:00:00 12.3 5 Noroeste 10 Noroeste 0 -- -- 85
2019-10-26 00:00:00 12.8 2 Este 11 Noroeste 0 -- -- 85
2019-10-25 23:00:00 15.1 5 Noroeste 11 Oeste 0 -- -- 72
2019-10-25 22:00:00 16.2 4 Oeste 11 Oeste 0 -- -- 73
2019-10-25 21:00:00 16.4 5 Oeste 9 Oeste 0 -- -- 73
2019-10-25 20:00:00 17.2 3 Sudoeste 13 Oeste 0 -- -- 78
2019-10-25 19:00:00 20.6 4 Oeste 13 Sudeste 0 -- -- 66
2019-10-25 18:00:00 22.6 4 Sur 12 Sur 0 -- -- 58
2019-10-25 17:00:00 23.4 6 Sudeste 14 Sur 0 -- -- 57
2019-10-25 16:00:00 23.7 9 Sudeste 18 Sur 0 -- -- 54
2019-10-25 15:00:00 22.5 5 Sudoeste 10 Sudoeste 0 -- -- 62
2019-10-25 14:00:00 18.9 3 Sudoeste 7 Sur 0 -- -- 79
2019-10-25 13:00:00 14.1 4 Este 9 Sudeste 0 -- -- 100
2019-10-25 12:00:00 11.1 3 Sudeste 7 Sudeste 0 -- -- 100
2019-10-25 11:00:00 10.2 3 Sudoeste 5 Oeste 0 -- -- 100
2019-10-25 10:00:00 9.6 4 Oeste 6 Oeste 0 -- -- 100
2019-10-25 09:00:00 9.6 2 Oeste 6 Noroeste 0 -- -- 100
2019-10-25 08:00:00 9.6 4 Noroeste 6 Oeste 0 -- -- 100
2019-10-25 07:00:00 9.7 3 Noroeste 6 Este 0.2 -- -- 100
2019-10-25 06:00:00 10 2 Noroeste 6 Noroeste 0 -- -- 100
2019-10-25 05:00:00 10.2 3 Oeste 5 Oeste 0 -- -- 100
2019-10-25 04:00:00 10.4 2 Noroeste 4 Oeste 0 -- -- 100
2019-10-25 03:00:00 10.6 0 Calma 4 Este 0 -- -- 100
2019-10-25 02:00:00 10.7 2 Sudeste 6 Oeste 0 -- -- 100
2019-10-25 01:00:00 11.1 4 Noroeste 6 Noroeste 0 -- -- 99
2019-10-25 00:00:00 11.4 0 Calma 5 Oeste 0 -- -- 99
2019-10-24 23:00:00 11.9 4 Oeste 6 Sudoeste 0 -- -- 98
2019-10-24 22:00:00 12.5 0 Calma 7 Oeste 0 -- -- 96
2019-10-24 21:00:00 12.9 3 Noroeste 6 Noroeste 0 -- -- 94
2019-10-24 20:00:00 13.2 2 Norte 6 Noroeste 0 -- -- 93
2019-10-24 19:00:00 13.9 2 Este 5 Noroeste 0 -- -- 92
2019-10-24 18:00:00 14.2 0 Calma 8 Noroeste 0 -- -- 87
2019-10-24 17:00:00 13.6 4 Noroeste 9 Oeste 0 -- -- 92
2019-10-24 16:00:00 13.2 4 Sudoeste 13 Noroeste 0 -- -- 92
2019-10-24 15:00:00 11.6 7 Noroeste 12 Noroeste 2.8 -- -- 96
2019-10-24 14:00:00 11.2 11 Noroeste 19 Oeste 2.6 -- -- 94
2019-10-24 13:00:00 12 8 Oeste 13 Oeste 0 -- -- 89
2019-10-24 12:00:00 11 10 Noroeste 18 Noroeste 0 -- -- 87
2019-10-24 11:00:00 10 7 Noroeste 12 Noroeste 0.2 -- -- 92
2019-10-24 10:00:00 9.1 6 Noroeste 10 Noroeste 1.8 -- -- 98
2019-10-24 09:00:00 9 5 Noroeste 10 Noroeste 4.8 -- -- 98
2019-10-24 08:00:00 9.4 0 Calma 6 Oeste 3.4 -- -- 99
2019-10-24 07:00:00 9.3 3 Oeste 9 Oeste 1.6 -- -- 98
2019-10-24 06:00:00 9.7 6 Noroeste 9 Noroeste 1.4 -- -- 97
2019-10-24 05:00:00 9.9 3 Nordeste 6 Este 0.4 -- -- 98
2019-10-24 04:00:00 10.2 2 Sudeste 10 Oeste 1 -- -- 98
2019-10-24 03:00:00 10.4 6 Oeste 11 Oeste 1.4 -- -- 99
2019-10-24 02:00:00 10.5 6 Oeste 18 Oeste 1 -- -- 98
2019-10-24 01:00:00 10.9 4 Oeste 25 Oeste 1.4 -- -- 98
2019-10-24 00:00:00 11.6 14 Oeste 23 Oeste 4 -- -- 98
2019-10-23 23:00:00 12 6 Este 9 Oeste 3.4 -- -- 97
2019-10-23 22:00:00 12.3 9 Oeste 19 Oeste 1 -- -- 94
2019-10-23 21:00:00 12.6 4 Oeste 12 Oeste 0 -- -- 89
2019-10-23 20:00:00 13.8 4 Oeste 18 Oeste 0 -- -- 80
2019-10-23 19:00:00 14.6 13 Oeste 21 Oeste 0 -- -- 75
2019-10-23 18:00:00 16 13 Sudeste 29 Sudeste 0 -- -- 67
2019-10-23 17:00:00 17 19 Sudeste 27 Este 0 -- -- 65
2019-10-23 16:00:00 16.7 4 Sudoeste 24 Sudeste 0 -- -- 72
2019-10-23 15:00:00 17.1 20 Sudeste 27 Este 0 -- -- 67
2019-10-23 14:00:00 17.3 6 Sudeste 14 Sudeste 0 -- -- 81
2019-10-23 13:00:00 14.1 0 Calma 13 Sudeste 0 -- -- 92
2019-10-23 12:00:00 12.7 7 Sudeste 22 Sudeste 0.2 -- -- 100
2019-10-23 11:00:00 11.1 2 Oeste 10 Este 0.4 -- -- 100
2019-10-23 10:00:00 10.6 3 Sudoeste 7 Oeste 0 -- -- 100
2019-10-23 09:00:00 10.4 3 Noroeste 9 Este 0 -- -- 100
2019-10-23 08:00:00 10.3 4 Este 9 Noroeste 0 -- -- 100
2019-10-23 07:00:00 10.1 4 Sudeste 9 Noroeste 0 -- -- 100
2019-10-23 06:00:00 10 6 Noroeste 10 Noroeste 0 -- -- 100
2019-10-23 05:00:00 10 5 Sudeste 13 Sudeste 0 -- -- 100
2019-10-23 04:00:00 9.7 3 Nordeste 8 Este 0 -- -- 100
2019-10-23 03:00:00 9.8 0 Calma 5 Este 0 -- -- 100
2019-10-23 02:00:00 9.7 3 Sudeste 6 Este 0 -- -- 100
2019-10-23 01:00:00 9.6 0 Calma 6 Noroeste 0.2 -- -- 100
2019-10-23 00:00:00 9.6 3 Oeste 8 Sudeste 0.4 -- -- 100
2019-10-22 23:00:00 9.5 2 Noroeste 4 Oeste 1.2 -- -- 100
2019-10-22 22:00:00 9.5 2 Oeste 8 Sudeste 1.8 -- -- 100
2019-10-22 21:00:00 9.4 4 Este 7 Este 4.6 -- -- 99
2019-10-22 20:00:00 9.5 3 Norte 13 Este 2.8 -- -- 98
2019-10-22 19:00:00 9.6 6 Nordeste 14 Este 2.4 -- -- 98
2019-10-22 18:00:00 9.5 2 Nordeste 11 Norte 2.2 -- -- 98
2019-10-22 17:00:00 9.8 5 Nordeste 17 Este 2.6 -- -- 98
2019-10-22 16:00:00 10 3 Este 8 Este 2.4 -- -- 100
2019-10-22 15:00:00 10 0 Calma 4 Noroeste 0.6 -- -- 100
2019-10-22 14:00:00 9.3 2 Oeste 6 Oeste 0 -- -- 100
2019-10-22 13:00:00 8.8 3 Nordeste 7 Este 0 -- -- 100
2019-10-22 12:00:00 8.1 3 Este 6 Este 0 -- -- 100
2019-10-22 11:00:00 7.8 3 Este 8 Este 0 -- -- 100
2019-10-22 10:00:00 7.4 4 Este 7 Este 0 -- -- 100
2019-10-22 09:00:00 7.3 3 Oeste 6 Oeste 0 -- -- 100
2019-10-22 08:00:00 7.2 0 Calma 5 Sur 0 -- -- 100
2019-10-22 07:00:00 7.2 2 Sudoeste 7 Oeste 0 -- -- 100
2019-10-22 06:00:00 7.4 3 Oeste 6 Sur 0 -- -- 100
2019-10-22 05:00:00 7.3 3 Oeste 9 Noroeste 0 -- -- 100
2019-10-22 04:00:00 7.4 2 Noroeste 9 Noroeste 0 -- -- 100
2019-10-22 03:00:00 7.5 3 Sur 5 Sudeste 0 -- -- 99
2019-10-22 02:00:00 7.5 0 Calma 4 Noroeste 0 -- -- 99
2019-10-22 01:00:00 8.1 3 Noroeste 5 Noroeste 0 -- -- 98
2019-10-22 00:00:00 8.3 2 Oeste 5 Noroeste 0 -- -- 97
2019-10-21 23:00:00 9 0 Calma 7 Oeste 0 -- -- 95
2019-10-21 22:00:00 9.6 4 Noroeste 7 Oeste 0 -- -- 95
2019-10-21 21:00:00 10.8 3 Este 5 Este 0 -- -- 90
2019-10-21 20:00:00 11.9 3 Sudeste 13 Norte 0 -- -- 86
2019-10-21 19:00:00 12.8 6 Norte 13 Nordeste 0 -- -- 80
2019-10-21 18:00:00 14.1 4 Sudeste 9 Noroeste 0 -- -- 72
2019-10-21 17:00:00 14.1 3 Norte 18 Este 0 -- -- 69
2019-10-21 16:00:00 15.8 10 Este 17 Este 0 -- -- 63
2019-10-21 15:00:00 15.9 7 Este 18 Sudeste 0 -- -- 61
2019-10-21 14:00:00 16.6 9 Sudeste 17 Sudeste 0 -- -- 59
2019-10-21 13:00:00 14.6 6 Sudeste 12 Sudeste 0 -- -- 72
2019-10-21 12:00:00 11.8 6 Sudeste 12 Sudeste 0 -- -- 96
2019-10-21 11:00:00 8.9 4 Sudeste 9 Oeste 0 -- -- 100
2019-10-21 10:00:00 8 3 Noroeste 8 Oeste 0 -- -- 100
2019-10-21 09:00:00 8.2 0 Calma 8 Noroeste 0 -- -- 100
2019-10-21 08:00:00 8.3 3 Sudoeste 10 Noroeste 0 -- -- 100
2019-10-21 07:00:00 8.8 2 Nordeste 8 Oeste 0 -- -- 99
2019-10-21 06:00:00 8.8 3 Oeste 9 Oeste 0 -- -- 99
2019-10-21 05:00:00 9.1 6 Noroeste 9 Noroeste 0 -- -- 99
2019-10-21 04:00:00 9.2 2 Este 5 Sudeste 0 -- -- 99
2019-10-21 03:00:00 9.3 3 Noroeste 5 Noroeste 0 -- -- 99
2019-10-21 02:00:00 9.5 3 Noroeste 7 Sudoeste 0 -- -- 99
2019-10-21 01:00:00 9.4 0 Calma 10 Oeste 0 -- -- 99
2019-10-21 00:00:00 9.8 7 Oeste 12 Oeste 0 -- -- 99
2019-10-20 23:00:00 9.9 5 Noroeste 6 Noroeste 0 -- -- 98
2019-10-20 22:00:00 10.1 3 Oeste 6 Oeste 0 -- -- 98
2019-10-20 21:00:00 10.2 5 Noroeste 7 Oeste 0 -- -- 97
2019-10-20 20:00:00 10.4 3 Sudoeste 15 Oeste 0.4 -- -- 95
2019-10-20 19:00:00 11.1 5 Oeste 17 Sudoeste 0 -- -- 90
2019-10-20 18:00:00 11.9 12 Oeste 22 Oeste 0 -- -- 86
2019-10-20 17:00:00 12 8 Oeste 21 Oeste 0 -- -- 89
2019-10-20 16:00:00 11.6 7 Oeste 24 Oeste 0.4 -- -- 92
2019-10-20 15:00:00 12.3 5 Oeste 21 Noroeste 0 -- -- 90
2019-10-20 14:00:00 12 8 Noroeste 26 Oeste 0 -- -- 90
2019-10-20 13:00:00 12.1 5 Oeste 28 Oeste 0.4 -- -- 92
2019-10-20 12:00:00 12 15 Oeste 30 Oeste 0 -- -- 90
2019-10-20 11:00:00 11.6 16 Oeste 38 Oeste 1 -- -- 94
2019-10-20 10:00:00 13.2 3 Sur 9 Sudeste 0 -- -- 99
2019-10-20 09:00:00 11.7 3 Oeste 12 Sudoeste 0.2 -- -- 98
2019-10-20 08:00:00 11.9 3 Sudoeste 24 Oeste 1.8 -- -- 98
2019-10-20 07:00:00 12.1 10 Oeste 20 Oeste 1 -- -- 97
2019-10-20 06:00:00 12.4 12 Oeste 23 Norte 0.2 -- -- 94
2019-10-20 05:00:00 13 2 Sudeste 18 Norte 4.4 -- -- 97
2019-10-20 04:00:00 13.3 4 Nordeste 9 Este 0.2 -- -- 96
2019-10-20 03:00:00 13.7 6 Norte 18 Noroeste 0 -- -- 93
2019-10-20 02:00:00 13.5 6 Norte 9 Norte 0.6 -- -- 96
2019-10-20 01:00:00 13.8 4 Este 15 Este 0 -- -- 93
2019-10-20 00:00:00 14.3 2 Sur 6 Oeste 0 -- -- 89
2019-10-19 23:00:00 14.6 5 Este 9 Sudeste 0.2 -- -- 87
2019-10-19 22:00:00 16.2 3 Este 34 Sudeste 0.2 -- -- 71
2019-10-19 21:00:00 18.8 15 Sudeste 40 Este 0 -- -- 55
2019-10-19 20:00:00 19.3 13 Sudeste 39 Sudeste 0 -- -- 49
2019-10-19 19:00:00 19.7 16 Sur 42 Sur 0 -- -- 48
2019-10-19 18:00:00 19.7 15 Sudeste 39 Sudeste 0 -- -- 50
2019-10-19 17:00:00 19.8 20 Sudeste 36 Este 0 -- -- 52
2019-10-19 16:00:00 22.3 8 Sudoeste 26 Sur 0 -- -- 47
2019-10-19 15:00:00 21.5 10 Sudoeste 27 Sudoeste 0 -- -- 50
2019-10-19 14:00:00 20.2 10 Sudoeste 23 Sudoeste 0 -- -- 52
2019-10-19 13:00:00 19.6 9 Sur 23 Sudeste 0 -- -- 56
2019-10-19 12:00:00 19.3 6 Sur 16 Sur 0 -- -- 57
2019-10-19 11:00:00 17.6 15 Sudeste 28 Sur 0 -- -- 59
2019-10-19 10:00:00 17.1 9 Este 18 Este 0 -- -- 61
2019-10-19 09:00:00 16.3 6 Oeste 30 Sudoeste 0 -- -- 63
2019-10-19 08:00:00 16.6 14 Oeste 24 Oeste 0 -- -- 60
2019-10-19 07:00:00 16.5 15 Oeste 33 Sudoeste 0 -- -- 59
2019-10-19 06:00:00 16.6 13 Oeste 32 Oeste 0 -- -- 60
2019-10-19 05:00:00 16.6 13 Oeste 26 Sudoeste 0 -- -- 60
2019-10-19 04:00:00 16.8 10 Oeste 22 Sudoeste 0 -- -- 60
2019-10-19 03:00:00 16.9 12 Oeste 36 Sudoeste 0 -- -- 62
2019-10-19 02:00:00 18 22 Oeste 43 Oeste 0 -- -- 57
2019-10-19 01:00:00 15.6 20 Oeste 35 Sudoeste 0 -- -- 75
2019-10-19 00:00:00 13.1 9 Este 13 Este 0 -- -- 95
2019-10-18 23:00:00 13.4 6 Sudoeste 13 Sudoeste 0 -- -- 93
2019-10-18 22:00:00 13.7 4 Noroeste 9 Este 0 -- -- 90
2019-10-18 21:00:00 14.2 3 Norte 9 Este 0 -- -- 87
2019-10-18 20:00:00 14.9 4 Nordeste 12 Este 0 -- -- 83
2019-10-18 19:00:00 15.6 8 Este 14 Este 0 -- -- 82
2019-10-18 18:00:00 16.5 6 Este 15 Este 0 -- -- 80
2019-10-18 17:00:00 17 8 Este 15 Este 0 -- -- 78
2019-10-18 16:00:00 17.6 7 Este 13 Este 0 -- -- 76
2019-10-18 15:00:00 18.1 8 Este 16 Este 0 -- -- 73
2019-10-18 14:00:00 16.7 7 Este 13 Este 0.2 -- -- 83
2019-10-18 13:00:00 15.4 4 Sudeste 10 Este 0 -- -- 93
2019-10-18 12:00:00 14.1 5 Este 8 Este 0 -- -- 98
2019-10-18 11:00:00 13.6 4 Este 10 Este 0.4 -- -- 98
2019-10-18 10:00:00 13.5 6 Este 12 Este 0.6 -- -- 97
2019-10-18 09:00:00 14 5 Nordeste 13 Este 0.4 -- -- 97
2019-10-18 08:00:00 14.5 4 Noroeste 9 Este 0.6 -- -- 98
2019-10-18 07:00:00 14.4 3 Oeste 6 Noroeste 0 -- -- 97
2019-10-18 06:00:00 14.3 3 Sudeste 6 Este 0 -- -- 96
2019-10-18 05:00:00 14.8 4 Nordeste 10 Este 0 -- -- 97
2019-10-18 04:00:00 14.3 5 Noroeste 8 Norte 0 -- -- 98
2019-10-18 03:00:00 14.3 3 Oeste 10 Norte 0 -- -- 97
2019-10-18 02:00:00 14.4 4 Este 8 Nordeste 0 -- -- 96
2019-10-18 01:00:00 14.6 0 Calma 5 Este 0 -- -- 96
2019-10-18 00:00:00 14.8 3 Nordeste 7 Este 0 -- -- 94